sensor_id;sensor_type;location;lat;lon;timestamp;P1;durP1;ratioP1;P2;durP2;ratioP2
83560;SDS011;73534;52.584;13.392;2023-11-21T00:01:55;28.77;;;14.77;;
83560;SDS011;73534;52.584;13.392;2023-11-21T00:04:22;35.67;;;15.32;;
83560;SDS011;73534;52.584;13.392;2023-11-21T00:06:47;33.00;;;15.05;;
83560;SDS011;73534;52.584;13.392;2023-11-21T00:09:13;30.73;;;16.13;;
83560;SDS011;73534;52.584;13.392;2023-11-21T00:11:43;32.53;;;16.17;;
83560;SDS011;73534;52.584;13.392;2023-11-21T00:14:09;34.67;;;15.98;;
83560;SDS011;73534;52.584;13.392;2023-11-21T00:16:35;39.00;;;16.33;;
83560;SDS011;73534;52.584;13.392;2023-11-21T00:19:00;32.55;;;15.95;;
83560;SDS011;73534;52.584;13.392;2023-11-21T00:21:26;35.08;;;16.35;;
83560;SDS011;73534;52.584;13.392;2023-11-21T00:23:51;37.55;;;15.88;;
83560;SDS011;73534;52.584;13.392;2023-11-21T00:26:16;43.60;;;17.40;;
83560;SDS011;73534;52.584;13.392;2023-11-21T00:28:42;42.85;;;17.75;;
83560;SDS011;73534;52.584;13.392;2023-11-21T00:31:07;35.55;;;16.20;;
83560;SDS011;73534;52.584;13.392;2023-11-21T00:33:32;39.22;;;17.52;;
83560;SDS011;73534;52.584;13.392;2023-11-21T00:35:58;43.60;;;18.52;;
83560;SDS011;73534;52.584;13.392;2023-11-21T00:38:23;49.92;;;18.30;;
83560;SDS011;73534;52.584;13.392;2023-11-21T00:40:49;50.67;;;20.58;;
83560;SDS011;73534;52.584;13.392;2023-11-21T00:43:14;52.15;;;20.55;;
83560;SDS011;73534;52.584;13.392;2023-11-21T00:45:40;51.00;;;21.15;;
83560;SDS011;73534;52.584;13.392;2023-11-21T00:48:05;54.15;;;22.35;;
83560;SDS011;73534;52.584;13.392;2023-11-21T00:50:31;59.10;;;22.08;;
83560;SDS011;73534;52.584;13.392;2023-11-21T00:52:56;57.47;;;21.90;;
83560;SDS011;73534;52.584;13.392;2023-11-21T00:55:21;57.72;;;22.52;;
83560;SDS011;73534;52.584;13.392;2023-11-21T00:57:47;53.85;;;21.35;;
83560;SDS011;73534;52.584;13.392;2023-11-21T01:00:12;60.65;;;22.58;;
83560;SDS011;73534;52.584;13.392;2023-11-21T01:02:45;55.70;;;21.63;;
83560;SDS011;73534;52.584;13.392;2023-11-21T01:05:11;56.13;;;23.27;;
83560;SDS011;73534;52.584;13.392;2023-11-21T01:07:37;51.95;;;21.25;;
83560;SDS011;73534;52.584;13.392;2023-11-21T01:10:05;52.95;;;20.08;;
83560;SDS011;73534;52.584;13.392;2023-11-21T01:12:32;56.63;;;20.50;;
83560;SDS011;73534;52.584;13.392;2023-11-21T01:14:59;40.97;;;16.70;;
83560;SDS011;73534;52.584;13.392;2023-11-21T01:17:25;41.42;;;16.95;;
83560;SDS011;73534;52.584;13.392;2023-11-21T01:19:51;35.08;;;15.73;;
83560;SDS011;73534;52.584;13.392;2023-11-21T01:22:16;41.90;;;16.83;;
83560;SDS011;73534;52.584;13.392;2023-11-21T01:24:41;43.80;;;17.00;;
83560;SDS011;73534;52.584;13.392;2023-11-21T01:27:06;42.97;;;17.40;;
83560;SDS011;73534;52.584;13.392;2023-11-21T01:29:32;37.97;;;15.57;;
83560;SDS011;73534;52.584;13.392;2023-11-21T01:31:57;40.85;;;17.45;;
83560;SDS011;73534;52.584;13.392;2023-11-21T01:34:22;37.80;;;15.63;;
83560;SDS011;73534;52.584;13.392;2023-11-21T01:36:48;42.13;;;15.07;;
83560;SDS011;73534;52.584;13.392;2023-11-21T01:39:13;42.53;;;16.92;;
83560;SDS011;73534;52.584;13.392;2023-11-21T01:41:41;39.05;;;16.02;;
83560;SDS011;73534;52.584;13.392;2023-11-21T01:44:09;36.80;;;15.93;;
83560;SDS011;73534;52.584;13.392;2023-11-21T01:46:34;34.20;;;13.57;;
83560;SDS011;73534;52.584;13.392;2023-11-21T01:49:00;31.65;;;14.18;;
83560;SDS011;73534;52.584;13.392;2023-11-21T01:51:25;27.60;;;13.73;;
83560;SDS011;73534;52.584;13.392;2023-11-21T01:53:51;33.25;;;13.50;;
83560;SDS011;73534;52.584;13.392;2023-11-21T01:56:17;25.27;;;12.73;;
83560;SDS011;73534;52.584;13.392;2023-11-21T01:58:43;31.88;;;13.13;;
83560;SDS011;73534;52.584;13.392;2023-11-21T02:01:08;26.92;;;11.50;;
83560;SDS011;73534;52.584;13.392;2023-11-21T02:03:35;27.52;;;13.18;;
83560;SDS011;73534;52.584;13.392;2023-11-21T02:06:00;27.65;;;12.98;;
83560;SDS011;73534;52.584;13.392;2023-11-21T02:08:25;27.20;;;12.80;;
83560;SDS011;73534;52.584;13.392;2023-11-21T02:10:51;20.77;;;11.65;;
83560;SDS011;73534;52.584;13.392;2023-11-21T02:13:17;27.85;;;11.93;;
83560;SDS011;73534;52.584;13.392;2023-11-21T02:15:42;26.17;;;11.93;;
83560;SDS011;73534;52.584;13.392;2023-11-21T02:18:08;25.05;;;11.85;;
83560;SDS011;73534;52.584;13.392;2023-11-21T02:20:36;19.65;;;10.02;;
83560;SDS011;73534;52.584;13.392;2023-11-21T02:23:03;14.95;;;9.75;;
83560;SDS011;73534;52.584;13.392;2023-11-21T02:25:30;15.82;;;9.27;;
83560;SDS011;73534;52.584;13.392;2023-11-21T02:28:00;17.60;;;10.18;;
83560;SDS011;73534;52.584;13.392;2023-11-21T02:30:26;15.95;;;10.10;;
83560;SDS011;73534;52.584;13.392;2023-11-21T02:32:53;15.57;;;9.50;;
83560;SDS011;73534;52.584;13.392;2023-11-21T02:35:19;18.23;;;10.20;;
83560;SDS011;73534;52.584;13.392;2023-11-21T02:37:46;16.55;;;9.60;;
83560;SDS011;73534;52.584;13.392;2023-11-21T02:40:12;15.23;;;10.48;;
83560;SDS011;73534;52.584;13.392;2023-11-21T02:42:37;18.23;;;10.88;;
83560;SDS011;73534;52.584;13.392;2023-11-21T02:45:04;15.52;;;9.48;;
83560;SDS011;73534;52.584;13.392;2023-11-21T02:47:31;15.25;;;9.40;;
83560;SDS011;73534;52.584;13.392;2023-11-21T02:49:56;14.32;;;9.52;;
83560;SDS011;73534;52.584;13.392;2023-11-21T02:52:21;15.70;;;9.50;;
83560;SDS011;73534;52.584;13.392;2023-11-21T02:54:46;16.17;;;9.77;;
83560;SDS011;73534;52.584;13.392;2023-11-21T02:57:12;16.90;;;10.07;;
83560;SDS011;73534;52.584;13.392;2023-11-21T02:59:37;16.48;;;10.32;;
83560;SDS011;73534;52.584;13.392;2023-11-21T03:02:02;17.23;;;10.10;;
83560;SDS011;73534;52.584;13.392;2023-11-21T03:04:28;19.42;;;11.70;;
83560;SDS011;73534;52.584;13.392;2023-11-21T03:06:53;16.67;;;10.93;;
83560;SDS011;73534;52.584;13.392;2023-11-21T03:09:18;13.57;;;8.57;;
83560;SDS011;73534;52.584;13.392;2023-11-21T03:11:44;14.70;;;9.75;;
83560;SDS011;73534;52.584;13.392;2023-11-21T03:14:09;15.43;;;9.55;;
83560;SDS011;73534;52.584;13.392;2023-11-21T03:16:35;17.15;;;10.45;;
83560;SDS011;73534;52.584;13.392;2023-11-21T03:19:01;15.15;;;10.00;;
83560;SDS011;73534;52.584;13.392;2023-11-21T03:21:26;15.05;;;10.75;;
83560;SDS011;73534;52.584;13.392;2023-11-21T03:23:51;15.60;;;10.00;;
83560;SDS011;73534;52.584;13.392;2023-11-21T03:26:17;13.73;;;9.93;;
83560;SDS011;73534;52.584;13.392;2023-11-21T03:28:43;17.25;;;10.90;;
83560;SDS011;73534;52.584;13.392;2023-11-21T03:31:08;14.15;;;9.30;;
83560;SDS011;73534;52.584;13.392;2023-11-21T03:33:36;15.52;;;9.27;;
83560;SDS011;73534;52.584;13.392;2023-11-21T03:36:01;14.25;;;9.52;;
83560;SDS011;73534;52.584;13.392;2023-11-21T03:38:27;16.00;;;9.55;;
83560;SDS011;73534;52.584;13.392;2023-11-21T03:40:52;17.05;;;11.00;;
83560;SDS011;73534;52.584;13.392;2023-11-21T03:43:18;17.27;;;10.93;;
83560;SDS011;73534;52.584;13.392;2023-11-21T03:45:46;16.58;;;10.50;;
83560;SDS011;73534;52.584;13.392;2023-11-21T03:48:12;17.08;;;10.38;;
83560;SDS011;73534;52.584;13.392;2023-11-21T03:50:37;19.27;;;10.82;;
83560;SDS011;73534;52.584;13.392;2023-11-21T03:53:03;16.90;;;10.63;;
83560;SDS011;73534;52.584;13.392;2023-11-21T03:55:28;17.27;;;10.90;;
83560;SDS011;73534;52.584;13.392;2023-11-21T03:57:56;16.83;;;11.38;;
83560;SDS011;73534;52.584;13.392;2023-11-21T04:00:22;17.63;;;10.57;;
83560;SDS011;73534;52.584;13.392;2023-11-21T04:02:47;18.95;;;10.75;;
83560;SDS011;73534;52.584;13.392;2023-11-21T04:05:12;15.48;;;9.10;;
83560;SDS011;73534;52.584;13.392;2023-11-21T04:07:38;15.43;;;9.73;;
83560;SDS011;73534;52.584;13.392;2023-11-21T04:10:04;15.65;;;9.40;;
83560;SDS011;73534;52.584;13.392;2023-11-21T04:12:34;17.52;;;9.23;;
83560;SDS011;73534;52.584;13.392;2023-11-21T04:15:00;14.00;;;9.40;;
83560;SDS011;73534;52.584;13.392;2023-11-21T04:17:25;12.05;;;8.30;;
83560;SDS011;73534;52.584;13.392;2023-11-21T04:19:50;14.70;;;8.10;;
83560;SDS011;73534;52.584;13.392;2023-11-21T04:22:15;13.30;;;9.15;;
83560;SDS011;73534;52.584;13.392;2023-11-21T04:24:41;13.40;;;8.50;;
83560;SDS011;73534;52.584;13.392;2023-11-21T04:27:06;16.38;;;9.82;;
83560;SDS011;73534;52.584;13.392;2023-11-21T04:29:31;15.77;;;10.13;;
83560;SDS011;73534;52.584;13.392;2023-11-21T04:31:57;16.88;;;10.40;;
83560;SDS011;73534;52.584;13.392;2023-11-21T04:34:22;18.27;;;10.63;;
83560;SDS011;73534;52.584;13.392;2023-11-21T04:36:47;18.38;;;11.65;;
83560;SDS011;73534;52.584;13.392;2023-11-21T04:39:13;18.08;;;9.73;;
83560;SDS011;73534;52.584;13.392;2023-11-21T04:41:38;21.02;;;11.30;;
83560;SDS011;73534;52.584;13.392;2023-11-21T04:44:04;15.77;;;10.85;;
83560;SDS011;73534;52.584;13.392;2023-11-21T04:46:30;18.05;;;10.82;;
83560;SDS011;73534;52.584;13.392;2023-11-21T04:48:56;14.77;;;9.52;;
83560;SDS011;73534;52.584;13.392;2023-11-21T04:51:22;13.98;;;8.68;;
83560;SDS011;73534;52.584;13.392;2023-11-21T04:53:47;13.18;;;8.77;;
83560;SDS011;73534;52.584;13.392;2023-11-21T04:56:12;13.63;;;8.88;;
83560;SDS011;73534;52.584;13.392;2023-11-21T04:58:38;14.05;;;8.70;;
83560;SDS011;73534;52.584;13.392;2023-11-21T05:01:04;13.68;;;8.27;;
83560;SDS011;73534;52.584;13.392;2023-11-21T05:03:30;13.27;;;8.38;;
83560;SDS011;73534;52.584;13.392;2023-11-21T05:05:56;14.02;;;8.45;;
83560;SDS011;73534;52.584;13.392;2023-11-21T05:08:21;14.52;;;9.15;;
83560;SDS011;73534;52.584;13.392;2023-11-21T05:10:47;13.70;;;8.43;;
83560;SDS011;73534;52.584;13.392;2023-11-21T05:13:13;14.77;;;10.60;;
83560;SDS011;73534;52.584;13.392;2023-11-21T05:15:42;15.52;;;9.60;;
83560;SDS011;73534;52.584;13.392;2023-11-21T05:18:07;15.95;;;9.05;;
83560;SDS011;73534;52.584;13.392;2023-11-21T05:20:33;15.38;;;9.23;;
83560;SDS011;73534;52.584;13.392;2023-11-21T05:22:58;15.45;;;9.52;;
83560;SDS011;73534;52.584;13.392;2023-11-21T05:25:24;13.73;;;9.00;;
83560;SDS011;73534;52.584;13.392;2023-11-21T05:27:49;16.85;;;9.80;;
83560;SDS011;73534;52.584;13.392;2023-11-21T05:30:15;13.90;;;8.93;;
83560;SDS011;73534;52.584;13.392;2023-11-21T05:32:40;13.13;;;8.20;;
83560;SDS011;73534;52.584;13.392;2023-11-21T05:35:09;11.90;;;7.10;;
83560;SDS011;73534;52.584;13.392;2023-11-21T05:37:40;15.57;;;9.25;;
83560;SDS011;73534;52.584;13.392;2023-11-21T05:40:06;12.98;;;8.60;;
83560;SDS011;73534;52.584;13.392;2023-11-21T05:42:32;13.50;;;8.88;;
83560;SDS011;73534;52.584;13.392;2023-11-21T05:44:58;14.18;;;9.60;;
83560;SDS011;73534;52.584;13.392;2023-11-21T05:47:36;12.88;;;8.00;;
83560;SDS011;73534;52.584;13.392;2023-11-21T05:50:09;12.00;;;7.95;;
83560;SDS011;73534;52.584;13.392;2023-11-21T05:52:39;13.85;;;8.60;;
83560;SDS011;73534;52.584;13.392;2023-11-21T05:55:05;11.90;;;7.90;;
83560;SDS011;73534;52.584;13.392;2023-11-21T05:57:32;11.05;;;7.15;;
83560;SDS011;73534;52.584;13.392;2023-11-21T06:00:07;9.55;;;6.95;;
83560;SDS011;73534;52.584;13.392;2023-11-21T06:02:39;13.65;;;7.63;;
83560;SDS011;73534;52.584;13.392;2023-11-21T06:05:06;9.70;;;6.93;;
83560;SDS011;73534;52.584;13.392;2023-11-21T06:07:31;11.00;;;6.90;;
83560;SDS011;73534;52.584;13.392;2023-11-21T06:09:57;10.15;;;7.22;;
83560;SDS011;73534;52.584;13.392;2023-11-21T06:12:22;10.13;;;6.53;;
83560;SDS011;73534;52.584;13.392;2023-11-21T06:14:47;10.32;;;6.22;;
83560;SDS011;73534;52.584;13.392;2023-11-21T06:17:13;10.25;;;7.00;;
83560;SDS011;73534;52.584;13.392;2023-11-21T06:19:39;8.95;;;5.80;;
83560;SDS011;73534;52.584;13.392;2023-11-21T06:22:04;8.65;;;5.78;;
83560;SDS011;73534;52.584;13.392;2023-11-21T06:24:30;8.25;;;5.90;;
83560;SDS011;73534;52.584;13.392;2023-11-21T06:26:56;8.93;;;5.78;;
83560;SDS011;73534;52.584;13.392;2023-11-21T06:29:21;7.60;;;5.32;;
83560;SDS011;73534;52.584;13.392;2023-11-21T06:31:47;8.10;;;6.07;;
83560;SDS011;73534;52.584;13.392;2023-11-21T06:34:12;8.50;;;5.65;;
83560;SDS011;73534;52.584;13.392;2023-11-21T06:36:38;8.05;;;5.45;;
83560;SDS011;73534;52.584;13.392;2023-11-21T06:39:04;9.48;;;5.78;;
83560;SDS011;73534;52.584;13.392;2023-11-21T06:41:32;9.65;;;6.10;;
83560;SDS011;73534;52.584;13.392;2023-11-21T06:43:58;8.38;;;5.30;;
83560;SDS011;73534;52.584;13.392;2023-11-21T06:46:24;9.18;;;5.40;;
83560;SDS011;73534;52.584;13.392;2023-11-21T06:48:49;8.30;;;5.47;;
83560;SDS011;73534;52.584;13.392;2023-11-21T06:51:15;8.10;;;5.53;;
83560;SDS011;73534;52.584;13.392;2023-11-21T06:53:40;9.63;;;5.32;;
83560;SDS011;73534;52.584;13.392;2023-11-21T06:56:14;7.65;;;5.35;;
83560;SDS011;73534;52.584;13.392;2023-11-21T06:58:40;10.70;;;6.28;;
83560;SDS011;73534;52.584;13.392;2023-11-21T07:01:06;8.45;;;5.55;;
83560;SDS011;73534;52.584;13.392;2023-11-21T07:03:32;9.02;;;6.82;;
83560;SDS011;73534;52.584;13.392;2023-11-21T07:05:57;8.27;;;5.38;;
83560;SDS011;73534;52.584;13.392;2023-11-21T07:08:22;8.85;;;5.25;;
83560;SDS011;73534;52.584;13.392;2023-11-21T07:10:47;10.27;;;7.15;;
83560;SDS011;73534;52.584;13.392;2023-11-21T07:13:14;9.80;;;6.50;;
83560;SDS011;73534;52.584;13.392;2023-11-21T07:15:39;9.65;;;6.43;;
83560;SDS011;73534;52.584;13.392;2023-11-21T07:18:05;8.98;;;6.50;;
83560;SDS011;73534;52.584;13.392;2023-11-21T07:20:32;9.27;;;6.57;;
83560;SDS011;73534;52.584;13.392;2023-11-21T07:22:58;8.90;;;6.18;;
83560;SDS011;73534;52.584;13.392;2023-11-21T07:25:24;9.40;;;6.57;;
83560;SDS011;73534;52.584;13.392;2023-11-21T07:27:49;8.35;;;6.68;;
83560;SDS011;73534;52.584;13.392;2023-11-21T07:30:15;10.55;;;6.45;;
83560;SDS011;73534;52.584;13.392;2023-11-21T07:32:40;9.02;;;5.90;;
83560;SDS011;73534;52.584;13.392;2023-11-21T07:35:06;9.50;;;6.55;;
83560;SDS011;73534;52.584;13.392;2023-11-21T07:37:33;7.75;;;5.38;;
83560;SDS011;73534;52.584;13.392;2023-11-21T07:39:58;7.70;;;5.32;;
83560;SDS011;73534;52.584;13.392;2023-11-21T07:42:23;10.45;;;6.07;;
83560;SDS011;73534;52.584;13.392;2023-11-21T07:44:51;7.60;;;5.75;;
83560;SDS011;73534;52.584;13.392;2023-11-21T07:47:17;9.65;;;5.78;;
83560;SDS011;73534;52.584;13.392;2023-11-21T07:49:42;8.13;;;5.70;;
83560;SDS011;73534;52.584;13.392;2023-11-21T07:52:08;7.30;;;4.97;;
83560;SDS011;73534;52.584;13.392;2023-11-21T07:54:34;9.43;;;6.53;;
83560;SDS011;73534;52.584;13.392;2023-11-21T07:57:00;8.93;;;5.93;;
83560;SDS011;73534;52.584;13.392;2023-11-21T07:59:26;12.88;;;6.03;;
83560;SDS011;73534;52.584;13.392;2023-11-21T08:01:51;8.65;;;5.57;;
83560;SDS011;73534;52.584;13.392;2023-11-21T08:04:16;7.30;;;6.00;;
83560;SDS011;73534;52.584;13.392;2023-11-21T08:06:42;7.40;;;5.45;;
83560;SDS011;73534;52.584;13.392;2023-11-21T08:09:08;8.65;;;5.72;;
83560;SDS011;73534;52.584;13.392;2023-11-21T08:11:37;7.53;;;6.20;;
83560;SDS011;73534;52.584;13.392;2023-11-21T08:14:04;7.97;;;5.30;;
83560;SDS011;73534;52.584;13.392;2023-11-21T08:16:29;7.82;;;5.82;;
83560;SDS011;73534;52.584;13.392;2023-11-21T08:18:55;8.10;;;5.53;;
83560;SDS011;73534;52.584;13.392;2023-11-21T08:29:10;9.05;;;5.95;;
83560;SDS011;73534;52.584;13.392;2023-11-21T08:31:36;8.90;;;5.97;;
83560;SDS011;73534;52.584;13.392;2023-11-21T08:34:02;8.80;;;6.15;;
83560;SDS011;73534;52.584;13.392;2023-11-21T08:36:30;9.48;;;5.53;;
83560;SDS011;73534;52.584;13.392;2023-11-21T08:39:00;8.77;;;5.32;;
83560;SDS011;73534;52.584;13.392;2023-11-21T08:42:28;9.77;;;5.88;;
83560;SDS011;73534;52.584;13.392;2023-11-21T08:44:56;8.77;;;5.78;;
83560;SDS011;73534;52.584;13.392;2023-11-21T08:47:30;7.97;;;5.68;;
83560;SDS011;73534;52.584;13.392;2023-11-21T08:53:51;8.77;;;5.22;;
83560;SDS011;73534;52.584;13.392;2023-11-21T08:56:17;8.52;;;5.68;;
83560;SDS011;73534;52.584;13.392;2023-11-21T08:58:45;7.20;;;5.72;;
83560;SDS011;73534;52.584;13.392;2023-11-21T09:01:31;8.05;;;5.80;;
83560;SDS011;73534;52.584;13.392;2023-11-21T09:10:42;11.70;;;6.10;;
83560;SDS011;73534;52.584;13.392;2023-11-21T09:13:12;14.55;;;6.72;;
83560;SDS011;73534;52.584;13.392;2023-11-21T09:15:56;13.75;;;6.88;;
83560;SDS011;73534;52.584;13.392;2023-11-21T09:18:30;13.68;;;7.15;;
83560;SDS011;73534;52.584;13.392;2023-11-21T09:29:08;16.40;;;8.00;;
83560;SDS011;73534;52.584;13.392;2023-11-21T09:31:33;13.95;;;7.55;;
83560;SDS011;73534;52.584;13.392;2023-11-21T09:33:58;13.73;;;7.32;;
83560;SDS011;73534;52.584;13.392;2023-11-21T09:36:24;17.30;;;7.40;;
83560;SDS011;73534;52.584;13.392;2023-11-21T09:38:51;14.82;;;8.18;;
83560;SDS011;73534;52.584;13.392;2023-11-21T09:41:23;14.07;;;7.13;;
83560;SDS011;73534;52.584;13.392;2023-11-21T09:43:56;17.52;;;9.07;;
83560;SDS011;73534;52.584;13.392;2023-11-21T09:46:24;16.80;;;7.80;;
83560;SDS011;73534;52.584;13.392;2023-11-21T09:48:50;20.10;;;8.00;;
83560;SDS011;73534;52.584;13.392;2023-11-21T09:51:18;13.90;;;7.28;;
83560;SDS011;73534;52.584;13.392;2023-11-21T09:53:45;15.30;;;7.95;;
83560;SDS011;73534;52.584;13.392;2023-11-21T09:56:11;16.42;;;7.30;;
83560;SDS011;73534;52.584;13.392;2023-11-21T09:58:44;17.10;;;7.35;;
83560;SDS011;73534;52.584;13.392;2023-11-21T10:01:11;13.50;;;7.50;;
83560;SDS011;73534;52.584;13.392;2023-11-21T10:03:38;14.20;;;6.65;;
83560;SDS011;73534;52.584;13.392;2023-11-21T10:06:04;15.00;;;7.20;;
83560;SDS011;73534;52.584;13.392;2023-11-21T10:08:30;17.52;;;6.95;;
83560;SDS011;73534;52.584;13.392;2023-11-21T10:10:56;11.70;;;6.20;;
83560;SDS011;73534;52.584;13.392;2023-11-21T10:13:24;12.38;;;6.10;;
83560;SDS011;73534;52.584;13.392;2023-11-21T10:15:50;11.63;;;5.68;;
83560;SDS011;73534;52.584;13.392;2023-11-21T10:18:16;8.70;;;4.97;;
83560;SDS011;73534;52.584;13.392;2023-11-21T10:20:42;9.55;;;5.25;;
83560;SDS011;73534;52.584;13.392;2023-11-21T10:23:08;9.10;;;5.60;;
83560;SDS011;73534;52.584;13.392;2023-11-21T10:25:36;8.35;;;5.13;;
83560;SDS011;73534;52.584;13.392;2023-11-21T10:28:02;11.90;;;5.93;;
83560;SDS011;73534;52.584;13.392;2023-11-21T10:30:38;9.07;;;6.18;;
83560;SDS011;73534;52.584;13.392;2023-11-21T10:33:04;12.20;;;6.00;;
83560;SDS011;73534;52.584;13.392;2023-11-21T10:36:06;9.43;;;5.60;;
83560;SDS011;73534;52.584;13.392;2023-11-21T10:38:26;12.02;;;5.55;;
83560;SDS011;73534;52.584;13.392;2023-11-21T10:40:52;11.23;;;6.00;;
83560;SDS011;73534;52.584;13.392;2023-11-21T10:43:19;13.82;;;6.95;;
83560;SDS011;73534;52.584;13.392;2023-11-21T10:45:45;9.13;;;5.32;;
83560;SDS011;73534;52.584;13.392;2023-11-21T10:48:12;8.13;;;5.00;;
83560;SDS011;73534;52.584;13.392;2023-11-21T10:50:40;8.90;;;4.97;;
83560;SDS011;73534;52.584;13.392;2023-11-21T10:53:06;7.03;;;4.85;;
83560;SDS011;73534;52.584;13.392;2023-11-21T10:55:32;6.28;;;4.45;;
83560;SDS011;73534;52.584;13.392;2023-11-21T10:57:58;5.75;;;4.15;;
83560;SDS011;73534;52.584;13.392;2023-11-21T11:02:51;7.45;;;4.60;;
83560;SDS011;73534;52.584;13.392;2023-11-21T11:05:19;7.03;;;4.85;;
83560;SDS011;73534;52.584;13.392;2023-11-21T11:07:47;5.68;;;4.95;;
83560;SDS011;73534;52.584;13.392;2023-11-21T11:10:13;7.40;;;4.90;;
83560;SDS011;73534;52.584;13.392;2023-11-21T11:12:39;6.78;;;4.78;;
83560;SDS011;73534;52.584;13.392;2023-11-21T11:15:08;7.70;;;4.47;;
83560;SDS011;73534;52.584;13.392;2023-11-21T11:17:39;7.03;;;5.35;;
83560;SDS011;73534;52.584;13.392;2023-11-21T11:20:05;6.35;;;4.70;;
83560;SDS011;73534;52.584;13.392;2023-11-21T11:22:40;7.32;;;4.60;;
83560;SDS011;73534;52.584;13.392;2023-11-21T11:25:15;5.03;;;4.13;;
83560;SDS011;73534;52.584;13.392;2023-11-21T11:28:04;6.05;;;4.22;;
83560;SDS011;73534;52.584;13.392;2023-11-21T11:33:29;4.60;;;3.88;;
83560;SDS011;73534;52.584;13.392;2023-11-21T11:39:34;5.88;;;4.32;;
83560;SDS011;73534;52.584;13.392;2023-11-21T11:42:02;7.90;;;4.95;;
83560;SDS011;73534;52.584;13.392;2023-11-21T11:47:28;5.85;;;4.72;;
83560;SDS011;73534;52.584;13.392;2023-11-21T11:50:07;4.95;;;4.25;;
83560;SDS011;73534;52.584;13.392;2023-11-21T11:52:52;7.28;;;4.80;;
83560;SDS011;73534;52.584;13.392;2023-11-21T11:55:22;6.18;;;3.78;;
83560;SDS011;73534;52.584;13.392;2023-11-21T11:57:51;6.13;;;3.92;;
83560;SDS011;73534;52.584;13.392;2023-11-21T12:00:21;6.07;;;4.95;;
83560;SDS011;73534;52.584;13.392;2023-11-21T12:02:55;6.18;;;4.47;;
83560;SDS011;73534;52.584;13.392;2023-11-21T12:05:58;7.68;;;4.95;;
83560;SDS011;73534;52.584;13.392;2023-11-21T12:08:23;7.15;;;5.47;;
83560;SDS011;73534;52.584;13.392;2023-11-21T12:10:56;7.18;;;5.10;;
83560;SDS011;73534;52.584;13.392;2023-11-21T12:13:22;7.88;;;5.47;;
83560;SDS011;73534;52.584;13.392;2023-11-21T12:15:48;7.43;;;5.75;;
83560;SDS011;73534;52.584;13.392;2023-11-21T12:18:14;8.20;;;6.43;;
83560;SDS011;73534;52.584;13.392;2023-11-21T12:20:39;7.20;;;4.97;;
83560;SDS011;73534;52.584;13.392;2023-11-21T12:23:06;8.88;;;6.53;;
83560;SDS011;73534;52.584;13.392;2023-11-21T12:25:31;8.80;;;6.32;;
83560;SDS011;73534;52.584;13.392;2023-11-21T12:27:58;7.93;;;5.75;;
83560;SDS011;73534;52.584;13.392;2023-11-21T12:30:25;8.27;;;6.63;;
83560;SDS011;73534;52.584;13.392;2023-11-21T12:32:53;8.00;;;5.72;;
83560;SDS011;73534;52.584;13.392;2023-11-21T12:35:21;6.28;;;4.90;;
83560;SDS011;73534;52.584;13.392;2023-11-21T12:40:13;7.13;;;5.75;;
83560;SDS011;73534;52.584;13.392;2023-11-21T12:42:42;8.85;;;6.22;;
83560;SDS011;73534;52.584;13.392;2023-11-21T12:45:18;6.80;;;4.97;;
83560;SDS011;73534;52.584;13.392;2023-11-21T12:47:57;8.10;;;5.43;;
83560;SDS011;73534;52.584;13.392;2023-11-21T12:50:32;7.50;;;5.60;;
83560;SDS011;73534;52.584;13.392;2023-11-21T12:53:03;12.13;;;6.80;;
83560;SDS011;73534;52.584;13.392;2023-11-21T12:55:30;10.15;;;7.22;;
83560;SDS011;73534;52.584;13.392;2023-11-21T12:57:56;10.07;;;7.18;;
83560;SDS011;73534;52.584;13.392;2023-11-21T13:00:31;9.13;;;6.65;;
83560;SDS011;73534;52.584;13.392;2023-11-21T13:02:58;9.20;;;6.40;;
83560;SDS011;73534;52.584;13.392;2023-11-21T13:05:25;11.18;;;6.65;;
83560;SDS011;73534;52.584;13.392;2023-11-21T13:08:04;11.77;;;7.15;;
83560;SDS011;73534;52.584;13.392;2023-11-21T13:10:33;9.80;;;7.25;;
83560;SDS011;73534;52.584;13.392;2023-11-21T13:13:07;13.23;;;7.50;;
83560;SDS011;73534;52.584;13.392;2023-11-21T13:15:39;10.63;;;6.75;;
83560;SDS011;73534;52.584;13.392;2023-11-21T13:18:06;12.55;;;8.05;;
83560;SDS011;73534;52.584;13.392;2023-11-21T13:20:32;13.23;;;7.63;;
83560;SDS011;73534;52.584;13.392;2023-11-21T13:22:57;15.18;;;8.75;;
83560;SDS011;73534;52.584;13.392;2023-11-21T13:25:24;16.33;;;9.27;;
83560;SDS011;73534;52.584;13.392;2023-11-21T13:27:56;15.85;;;9.45;;
83560;SDS011;73534;52.584;13.392;2023-11-21T13:30:23;15.90;;;9.48;;
83560;SDS011;73534;52.584;13.392;2023-11-21T13:32:55;18.98;;;9.45;;
83560;SDS011;73534;52.584;13.392;2023-11-21T13:35:27;21.08;;;9.55;;
83560;SDS011;73534;52.584;13.392;2023-11-21T13:37:57;19.88;;;10.68;;
83560;SDS011;73534;52.584;13.392;2023-11-21T13:40:38;16.08;;;10.18;;
83560;SDS011;73534;52.584;13.392;2023-11-21T13:43:09;20.10;;;11.57;;
83560;SDS011;73534;52.584;13.392;2023-11-21T13:45:36;23.40;;;12.85;;
83560;SDS011;73534;52.584;13.392;2023-11-21T13:48:02;26.60;;;13.52;;
83560;SDS011;73534;52.584;13.392;2023-11-21T13:50:27;27.08;;;14.35;;
83560;SDS011;73534;52.584;13.392;2023-11-21T13:53:02;32.70;;;15.93;;
83560;SDS011;73534;52.584;13.392;2023-11-21T13:55:34;30.30;;;15.10;;
83560;SDS011;73534;52.584;13.392;2023-11-21T13:58:00;30.13;;;14.20;;
83560;SDS011;73534;52.584;13.392;2023-11-21T14:00:26;29.55;;;15.27;;
83560;SDS011;73534;52.584;13.392;2023-11-21T14:03:09;23.58;;;13.75;;
83560;SDS011;73534;52.584;13.392;2023-11-21T14:05:42;43.42;;;26.65;;
83560;SDS011;73534;52.584;13.392;2023-11-21T14:08:08;17.55;;;11.57;;
83560;SDS011;73534;52.584;13.392;2023-11-21T14:10:35;18.58;;;12.63;;
83560;SDS011;73534;52.584;13.392;2023-11-21T14:13:08;22.77;;;12.85;;
83560;SDS011;73534;52.584;13.392;2023-11-21T14:15:36;20.70;;;14.05;;
83560;SDS011;73534;52.584;13.392;2023-11-21T14:18:07;20.48;;;12.95;;
83560;SDS011;73534;52.584;13.392;2023-11-21T14:20:35;24.85;;;13.93;;
83560;SDS011;73534;52.584;13.392;2023-11-21T14:23:02;20.85;;;13.48;;
83560;SDS011;73534;52.584;13.392;2023-11-21T14:25:28;25.55;;;14.43;;
83560;SDS011;73534;52.584;13.392;2023-11-21T14:27:54;22.63;;;14.57;;
83560;SDS011;73534;52.584;13.392;2023-11-21T14:30:19;23.92;;;13.98;;
83560;SDS011;73534;52.584;13.392;2023-11-21T14:32:47;21.35;;;14.63;;
83560;SDS011;73534;52.584;13.392;2023-11-21T14:35:12;26.77;;;15.00;;
83560;SDS011;73534;52.584;13.392;2023-11-21T14:37:37;19.58;;;13.15;;
83560;SDS011;73534;52.584;13.392;2023-11-21T14:40:04;19.75;;;13.50;;
83560;SDS011;73534;52.584;13.392;2023-11-21T14:42:32;23.42;;;14.27;;
83560;SDS011;73534;52.584;13.392;2023-11-21T14:44:58;22.02;;;14.15;;
83560;SDS011;73534;52.584;13.392;2023-11-21T14:47:28;21.45;;;12.60;;
83560;SDS011;73534;52.584;13.392;2023-11-21T14:49:53;26.63;;;15.20;;
83560;SDS011;73534;52.584;13.392;2023-11-21T14:52:21;21.00;;;13.90;;
83560;SDS011;73534;52.584;13.392;2023-11-21T14:55:02;22.42;;;15.10;;
83560;SDS011;73534;52.584;13.392;2023-11-21T14:57:49;21.83;;;13.32;;
83560;SDS011;73534;52.584;13.392;2023-11-21T15:00:18;20.05;;;14.48;;
83560;SDS011;73534;52.584;13.392;2023-11-21T15:03:00;17.98;;;12.20;;
83560;SDS011;73534;52.584;13.392;2023-11-21T15:05:26;20.83;;;12.93;;